createdAt,value
2019-01-16T00:00:51.429Z,1007.32
2019-01-16T00:01:51.482Z,1007.26
2019-01-16T00:02:51.535Z,1007.28
2019-01-16T00:03:51.587Z,1007.33
2019-01-16T00:04:51.637Z,1007.27
2019-01-16T00:05:51.691Z,1007.23
2019-01-16T00:06:51.744Z,1007.25
2019-01-16T00:07:51.794Z,1007.28
2019-01-16T00:08:51.846Z,1007.27
2019-01-16T00:09:51.900Z,1007.24
2019-01-16T00:10:51.953Z,1007.28
2019-01-16T00:11:52.002Z,1007.21
2019-01-16T00:12:52.055Z,1007.25
2019-01-16T00:13:52.109Z,1007.25
2019-01-16T00:14:52.161Z,1007.30
2019-01-16T00:15:52.212Z,1007.27
2019-01-16T00:16:52.265Z,1007.24
2019-01-16T00:17:52.317Z,1007.26
2019-01-16T00:18:52.370Z,1007.23
2019-01-16T00:19:52.421Z,1007.24
2019-01-16T00:20:52.474Z,1007.26
2019-01-16T00:21:52.528Z,1007.18
2019-01-16T00:22:52.578Z,1007.23
2019-01-16T00:23:52.631Z,1007.22
2019-01-16T00:24:52.682Z,1007.21
2019-01-16T00:25:52.734Z,1007.16
2019-01-16T00:26:52.788Z,1007.16
2019-01-16T00:27:52.839Z,1007.14
2019-01-16T00:28:52.892Z,1007.13
2019-01-16T00:29:52.943Z,1007.13
2019-01-16T00:30:52.998Z,1007.09
2019-01-16T00:31:53.047Z,1007.11
2019-01-16T00:32:53.101Z,1007.12
2019-01-16T00:33:53.153Z,1007.15
2019-01-16T00:34:53.205Z,1007.16
2019-01-16T00:35:53.260Z,1007.15
2019-01-16T00:36:53.309Z,1007.12
2019-01-16T00:37:53.363Z,1007.09
2019-01-16T00:38:53.415Z,1007.14
2019-01-16T00:39:53.467Z,1007.13
2019-01-16T00:40:53.520Z,1007.07
2019-01-16T00:41:53.572Z,1007.11
2019-01-16T00:42:53.624Z,1007.06
2019-01-16T00:43:53.676Z,1007.04
2019-01-16T00:44:53.727Z,1007.05
2019-01-16T00:45:53.780Z,1007.08
2019-01-16T00:46:53.832Z,1007.06
2019-01-16T00:47:53.885Z,1007.09
2019-01-16T00:48:53.939Z,1007.03
2019-01-16T00:49:53.989Z,1007.07
2019-01-16T00:50:54.043Z,1007.07
2019-01-16T00:51:54.095Z,1007.09
2019-01-16T00:52:54.148Z,1007.07
2019-01-16T00:53:54.200Z,1007.04
2019-01-16T00:54:54.252Z,1007.03
2019-01-16T00:55:54.303Z,1007.05
2019-01-16T00:56:54.357Z,1007.03
2019-01-16T00:57:54.410Z,1007.00
2019-01-16T00:58:54.471Z,1007.01
2019-01-16T00:59:54.514Z,1007.03
2019-01-16T01:00:54.565Z,1007.01
2019-01-16T01:01:54.620Z,1006.97
2019-01-16T01:02:54.671Z,1006.95
2019-01-16T01:03:54.722Z,1006.96
2019-01-16T01:04:54.775Z,1006.98
2019-01-16T01:05:54.828Z,1006.96
2019-01-16T01:06:54.881Z,1006.97
2019-01-16T01:07:54.933Z,1006.99
2019-01-16T01:08:54.984Z,1006.94
2019-01-16T01:09:55.037Z,1006.97
2019-01-16T01:10:55.089Z,1007.00
2019-01-16T01:11:55.142Z,1007.02
2019-01-16T01:12:55.195Z,1006.94
2019-01-16T01:13:55.247Z,1006.96
2019-01-16T01:14:55.299Z,1007.01
2019-01-16T01:15:55.351Z,1006.99
2019-01-16T01:16:55.403Z,1006.97
2019-01-16T01:17:55.458Z,1006.96
2019-01-16T01:18:55.509Z,1006.90
2019-01-16T01:19:55.561Z,1006.93
2019-01-16T01:20:55.614Z,1006.91
2019-01-16T01:21:55.666Z,1006.90
2019-01-16T01:22:55.718Z,1006.90
2019-01-16T01:23:55.769Z,1006.96
2019-01-16T01:24:55.823Z,1006.90
2019-01-16T01:25:55.876Z,1006.92
2019-01-16T01:26:55.928Z,1006.90
2019-01-16T01:27:55.983Z,1006.90
2019-01-16T01:28:56.031Z,1006.84
2019-01-16T01:29:56.085Z,1006.87
2019-01-16T01:30:56.138Z,1006.86
2019-01-16T01:31:56.190Z,1006.83
2019-01-16T01:32:56.243Z,1006.82
2019-01-16T01:33:56.294Z,1006.81
2019-01-16T01:34:56.353Z,1006.81
2019-01-16T01:35:56.398Z,1006.82
2019-01-16T01:36:56.451Z,1006.88
2019-01-16T01:37:56.505Z,1006.89
2019-01-16T01:38:56.555Z,1006.85
2019-01-16T01:39:56.609Z,1006.85
2019-01-16T01:40:56.661Z,1006.87
2019-01-16T01:41:56.715Z,1006.86
2019-01-16T01:42:56.766Z,1006.88
2019-01-16T01:43:56.820Z,1006.90
2019-01-16T01:44:56.871Z,1006.94
2019-01-16T01:45:56.922Z,1006.90
2019-01-16T01:46:56.978Z,1006.89
2019-01-16T01:47:57.029Z,1006.93
2019-01-16T01:48:57.079Z,1006.94
2019-01-16T01:49:57.131Z,1006.94
2019-01-16T01:50:57.184Z,1006.97
2019-01-16T01:51:57.235Z,1006.95
2019-01-16T01:52:57.289Z,1006.90
2019-01-16T01:53:57.340Z,1006.96
2019-01-16T01:54:57.395Z,1006.93
2019-01-16T01:55:57.447Z,1006.92
2019-01-16T01:56:57.499Z,1006.90
2019-01-16T01:57:57.550Z,1006.88
2019-01-16T01:58:57.606Z,1006.85
2019-01-16T01:59:57.656Z,1006.84
2019-01-16T02:00:57.708Z,1006.83
2019-01-16T02:01:57.760Z,1006.81
2019-01-16T02:02:57.812Z,1006.82
2019-01-16T02:03:57.865Z,1006.82
2019-01-16T02:04:57.919Z,1006.82
2019-01-16T02:05:57.970Z,1006.82
2019-01-16T02:06:58.022Z,1006.81
2019-01-16T02:07:58.075Z,1006.80
2019-01-16T02:08:58.128Z,1006.75
2019-01-16T02:09:58.242Z,1006.77
2019-01-16T02:10:58.230Z,1006.75
2019-01-16T02:11:58.283Z,1006.71
2019-01-16T02:12:58.341Z,1006.73
2019-01-16T02:13:58.390Z,1006.73
2019-01-16T02:14:58.441Z,1006.72
2019-01-16T02:15:58.493Z,1006.75
2019-01-16T02:16:58.545Z,1006.70
2019-01-16T02:17:58.596Z,1006.69
2019-01-16T02:18:58.649Z,1006.71
2019-01-16T02:19:58.717Z,1006.71
2019-01-16T02:20:58.755Z,1006.77
2019-01-16T02:21:58.807Z,1006.74
2019-01-16T02:22:58.859Z,1006.71
2019-01-16T02:23:58.911Z,1006.70
2019-01-16T02:24:58.963Z,1006.72
2019-01-16T02:25:59.015Z,1006.74
2019-01-16T02:26:59.068Z,1006.67
2019-01-16T02:27:59.123Z,1006.71
2019-01-16T02:28:59.189Z,1006.76
2019-01-16T02:29:59.224Z,1006.70
2019-01-16T02:30:59.277Z,1006.71
2019-01-16T02:31:59.331Z,1006.70
2019-01-16T02:32:59.382Z,1006.66
2019-01-16T02:33:59.439Z,1006.64
2019-01-16T02:34:59.488Z,1006.67
2019-01-16T02:35:59.538Z,1006.66
2019-01-16T02:36:59.591Z,1006.66
2019-01-16T02:37:59.643Z,1006.64
2019-01-16T02:38:59.698Z,1006.61
2019-01-16T02:39:59.748Z,1006.60
2019-01-16T02:40:59.799Z,1006.54
2019-01-16T02:41:59.854Z,1006.56
2019-01-16T02:42:59.905Z,1006.52
2019-01-16T02:43:59.957Z,1006.54
2019-01-16T02:45:00.018Z,1006.55
2019-01-16T02:46:00.063Z,1006.53
2019-01-16T02:47:00.115Z,1006.55
2019-01-16T02:48:00.168Z,1006.46
2019-01-16T02:49:00.219Z,1006.45
2019-01-16T02:50:00.302Z,1006.41
2019-01-16T02:51:00.332Z,1006.41
2019-01-16T02:52:00.375Z,1006.37
2019-01-16T02:53:00.426Z,1006.37
2019-01-16T02:54:00.479Z,1006.36
2019-01-16T02:55:00.533Z,1006.37
2019-01-16T02:56:00.583Z,1006.41
2019-01-16T02:57:00.637Z,1006.35
2019-01-16T02:58:00.688Z,1006.30
2019-01-16T02:59:00.743Z,1006.29
2019-01-16T03:00:00.796Z,1006.27
2019-01-16T03:01:00.862Z,1006.25
2019-01-16T03:02:00.898Z,1006.24
2019-01-16T03:03:00.951Z,1006.19
2019-01-16T03:04:01.000Z,1006.20
2019-01-16T03:05:01.054Z,1006.20
2019-01-16T03:06:01.108Z,1006.19
2019-01-16T03:07:01.159Z,1006.20
2019-01-16T03:08:01.212Z,1006.17
2019-01-16T03:09:01.262Z,1006.17
2019-01-16T03:10:01.317Z,1006.19
2019-01-16T03:11:01.370Z,1006.12
2019-01-16T03:12:01.420Z,1006.13
2019-01-16T03:13:01.472Z,1006.09
2019-01-16T03:14:01.524Z,1006.14
2019-01-16T03:15:01.578Z,1006.12
2019-01-16T03:16:01.628Z,1006.11
2019-01-16T03:17:01.686Z,1006.08
2019-01-16T03:18:01.734Z,1006.13
2019-01-16T03:19:04.694Z,1006.08
2019-01-16T03:20:01.837Z,1006.07
2019-01-16T03:21:01.889Z,1006.11
2019-01-16T03:22:01.942Z,1006.12
2019-01-16T03:23:01.995Z,1006.11
2019-01-16T03:24:02.048Z,1006.04
2019-01-16T03:25:02.098Z,1006.01
2019-01-16T03:26:02.152Z,1006.02
2019-01-16T03:27:02.205Z,1006.04
2019-01-16T03:28:02.255Z,1005.96
2019-01-16T03:29:02.310Z,1005.99
2019-01-16T03:30:02.363Z,1005.94
2019-01-16T03:31:02.462Z,1005.90
2019-01-16T03:32:02.479Z,1005.91
2019-01-16T03:33:02.525Z,1005.90
2019-01-16T03:34:02.569Z,1005.87
2019-01-16T03:35:02.621Z,1005.92
2019-01-16T03:36:02.673Z,1005.85
2019-01-16T03:37:02.727Z,1005.83
2019-01-16T03:38:02.778Z,1005.83
2019-01-16T03:39:02.830Z,1005.83
2019-01-16T03:40:02.882Z,1005.83
2019-01-16T03:41:02.935Z,1005.77
2019-01-16T03:42:02.987Z,1005.77
2019-01-16T03:43:03.039Z,1005.74
2019-01-16T03:44:03.092Z,1005.72
2019-01-16T03:45:03.142Z,1005.71
2019-01-16T03:46:03.198Z,1005.65
2019-01-16T03:47:03.249Z,1005.66
2019-01-16T03:48:03.299Z,1005.63
2019-01-16T03:49:03.355Z,1005.58
2019-01-16T03:50:03.405Z,1005.61
2019-01-16T03:51:03.456Z,1005.62
2019-01-16T03:52:03.508Z,1005.58
2019-01-16T03:53:03.579Z,1005.61
2019-01-16T03:54:03.616Z,1005.62
2019-01-16T03:55:03.666Z,1005.64
2019-01-16T03:56:03.732Z,1005.69
2019-01-16T03:57:03.770Z,1005.71
2019-01-16T03:58:03.824Z,1005.72
2019-01-16T03:59:03.875Z,1005.74
2019-01-16T04:00:03.928Z,1005.68
2019-01-16T04:01:03.982Z,1005.69
2019-01-16T04:02:04.032Z,1005.69
2019-01-16T04:03:04.083Z,1005.64
2019-01-16T04:04:04.133Z,1005.62
2019-01-16T04:05:04.186Z,1005.59
2019-01-16T04:06:04.239Z,1005.61
2019-01-16T04:07:04.292Z,1005.63
2019-01-16T04:08:04.342Z,1005.64
2019-01-16T04:09:04.397Z,1005.64
2019-01-16T04:10:04.448Z,1005.62
2019-01-16T04:11:04.500Z,1005.64
2019-01-16T04:12:04.558Z,1005.66
2019-01-16T04:13:04.605Z,1005.63
2019-01-16T04:14:04.659Z,1005.63
2019-01-16T04:15:04.711Z,1005.58
2019-01-16T04:16:04.759Z,1005.56
2019-01-16T04:17:04.811Z,1005.57
2019-01-16T04:18:04.867Z,1005.52
2019-01-16T04:19:04.921Z,1005.49
2019-01-16T04:20:04.969Z,1005.48
2019-01-16T04:21:05.020Z,1005.48
2019-01-16T04:22:05.078Z,1005.44
2019-01-16T04:23:05.125Z,1005.48
2019-01-16T04:24:05.181Z,1005.50
2019-01-16T04:25:05.229Z,1005.48
2019-01-16T04:26:05.281Z,1005.42
2019-01-16T04:27:05.335Z,1005.40
2019-01-16T04:28:05.385Z,1005.40
2019-01-16T04:29:05.436Z,1005.36
2019-01-16T04:30:05.491Z,1005.37
2019-01-16T04:31:05.542Z,1005.35
2019-01-16T04:32:05.594Z,1005.33
2019-01-16T04:33:05.646Z,1005.37
2019-01-16T04:34:05.699Z,1005.31
2019-01-16T04:35:05.749Z,1005.32
2019-01-16T04:36:05.808Z,1005.27
2019-01-16T04:37:05.854Z,1005.29
2019-01-16T04:38:05.907Z,1005.25
2019-01-16T04:39:05.961Z,1005.26
2019-01-16T04:40:06.009Z,1005.27
2019-01-16T04:41:06.062Z,1005.23
2019-01-16T04:42:06.114Z,1005.18
2019-01-16T04:43:06.166Z,1005.15
2019-01-16T04:44:06.218Z,1005.15
2019-01-16T04:45:06.270Z,1005.13
2019-01-16T04:46:06.324Z,1005.12
2019-01-16T04:47:06.405Z,1005.10
2019-01-16T04:48:06.428Z,1005.03
2019-01-16T04:49:06.498Z,1005.05
2019-01-16T04:50:06.531Z,1005.09
2019-01-16T04:51:06.584Z,1005.04
2019-01-16T04:52:06.634Z,1005.03
2019-01-16T04:53:06.687Z,1005.02
2019-01-16T04:54:06.739Z,1005.04
2019-01-16T04:55:06.790Z,1005.09
2019-01-16T04:56:06.843Z,1005.07
2019-01-16T04:57:06.895Z,1005.08
2019-01-16T04:58:06.948Z,1005.10
2019-01-16T04:59:07.021Z,1005.09
2019-01-16T05:00:07.122Z,1005.06
2019-01-16T05:01:07.103Z,1005.12
2019-01-16T05:02:07.155Z,1005.15
2019-01-16T05:03:07.212Z,1005.09
2019-01-16T05:04:07.259Z,1005.06
2019-01-16T05:05:07.347Z,1005.08
2019-01-16T05:06:07.363Z,1005.05
2019-01-16T05:07:07.449Z,1005.08
2019-01-16T05:08:07.466Z,1005.03
2019-01-16T05:09:07.518Z,1005.03
2019-01-16T05:10:07.586Z,1005.02
2019-01-16T05:11:07.626Z,1005.00
2019-01-16T05:12:07.674Z,1004.98
2019-01-16T05:13:07.728Z,1004.89
2019-01-16T05:14:07.781Z,1004.88
2019-01-16T05:15:08.197Z,1004.87
2019-01-16T05:16:08.566Z,1004.90
2019-01-16T05:17:08.494Z,1004.91
2019-01-16T05:18:07.990Z,1004.88
2019-01-16T05:19:08.043Z,1004.87
2019-01-16T05:20:08.092Z,1004.90
2019-01-16T05:21:08.145Z,1004.90
2019-01-16T05:22:08.196Z,1004.93
2019-01-16T05:23:08.251Z,1004.92
2019-01-16T05:24:08.904Z,1004.88
2019-01-16T05:25:08.940Z,1004.85
2019-01-16T05:26:08.969Z,1004.86
2019-01-16T05:27:08.988Z,1004.86
2019-01-16T05:28:09.034Z,1004.84
2019-01-16T05:29:09.132Z,1004.81
2019-01-16T05:30:09.153Z,1004.85
2019-01-16T05:31:09.319Z,1004.81
2019-01-16T05:32:08.718Z,1004.85
2019-01-16T05:33:08.771Z,1004.85
2019-01-16T05:34:08.821Z,1004.85
2019-01-16T05:35:08.930Z,1004.84
2019-01-16T05:36:08.925Z,1004.86
2019-01-16T05:37:09.313Z,1004.85
2019-01-16T05:38:09.030Z,1004.85
2019-01-16T05:39:09.082Z,1004.84
2019-01-16T05:40:09.133Z,1004.82
2019-01-16T05:41:09.187Z,1004.82
2019-01-16T05:42:09.239Z,1004.82
2019-01-16T05:43:09.290Z,1004.82
2019-01-16T05:44:09.343Z,1004.81
2019-01-16T05:45:09.397Z,1004.78
2019-01-16T05:46:09.451Z,1004.72
2019-01-16T05:47:09.502Z,1004.72
2019-01-16T05:48:09.551Z,1004.74
2019-01-16T05:49:09.604Z,1004.72
2019-01-16T05:50:09.655Z,1004.68
2019-01-16T05:51:09.710Z,1004.67
2019-01-16T05:52:09.763Z,1004.65
2019-01-16T05:53:09.812Z,1004.63
2019-01-16T05:54:09.864Z,1004.59
2019-01-16T05:55:09.950Z,1004.63
2019-01-16T05:56:09.968Z,1004.56
2019-01-16T05:57:10.019Z,1004.51
2019-01-16T05:58:10.099Z,1004.53
2019-01-16T05:59:10.128Z,1004.55
2019-01-16T06:00:10.179Z,1004.53
2019-01-16T06:01:10.229Z,1004.47
2019-01-16T06:02:10.282Z,1004.44
2019-01-16T06:03:10.334Z,1004.46
2019-01-16T06:04:10.386Z,1004.43
2019-01-16T06:05:10.438Z,1004.38
2019-01-16T06:06:10.491Z,1004.40
2019-01-16T06:07:10.559Z,1004.45
2019-01-16T06:08:10.594Z,1004.42
2019-01-16T06:09:10.647Z,1004.40
2019-01-16T06:10:10.699Z,1004.40
2019-01-16T06:11:10.751Z,1004.42
2019-01-16T06:12:10.801Z,1004.32
2019-01-16T06:13:10.853Z,1004.38
2019-01-16T06:14:10.906Z,1004.38
2019-01-16T06:15:10.959Z,1004.32
2019-01-16T06:16:11.010Z,1004.28
2019-01-16T06:17:11.063Z,1004.26
2019-01-16T06:18:11.115Z,1004.32
2019-01-16T06:19:11.166Z,1004.32
2019-01-16T06:20:11.219Z,1004.30
2019-01-16T06:21:11.315Z,1004.30
2019-01-16T06:22:11.343Z,1004.31
2019-01-16T06:23:11.376Z,1004.32
2019-01-16T06:24:11.427Z,1004.28
2019-01-16T06:25:11.480Z,1004.27
2019-01-16T06:26:11.567Z,1004.27
2019-01-16T06:27:16.535Z,1004.27
2019-01-16T06:28:11.635Z,1004.27
2019-01-16T06:29:11.689Z,1004.27
2019-01-16T06:30:11.773Z,1004.21
2019-01-16T06:31:11.792Z,1004.20
2019-01-16T06:32:11.843Z,1004.24
2019-01-16T06:33:11.914Z,1004.25
2019-01-16T06:34:11.964Z,1004.22
2019-01-16T06:35:12.015Z,1004.17
2019-01-16T06:36:12.051Z,1004.19
2019-01-16T06:37:12.104Z,1004.21
2019-01-16T06:38:12.156Z,1004.20
2019-01-16T06:39:12.209Z,1004.19
2019-01-16T06:40:12.283Z,1004.21
2019-01-16T06:41:12.312Z,1004.24
2019-01-16T06:42:12.364Z,1004.20
2019-01-16T06:43:12.424Z,1004.23
2019-01-16T06:44:12.500Z,1004.21
2019-01-16T06:45:12.521Z,1004.21
2019-01-16T06:46:12.604Z,1004.22
2019-01-16T06:47:12.627Z,1004.21
2019-01-16T06:48:12.675Z,1004.19
2019-01-16T06:49:12.729Z,1004.15
2019-01-16T06:50:16.573Z,1004.15
2019-01-16T06:51:12.833Z,1004.10
2019-01-16T06:52:12.884Z,1004.09
2019-01-16T06:53:12.936Z,1004.09
2019-01-16T06:54:12.988Z,1004.08
2019-01-16T06:55:13.041Z,1004.09
2019-01-16T06:56:13.093Z,1004.12
2019-01-16T06:57:13.146Z,1004.14
2019-01-16T06:58:13.296Z,1004.15
2019-01-16T06:59:13.957Z,1004.19
2019-01-16T07:00:14.330Z,1004.15
2019-01-16T07:01:13.765Z,1004.13
2019-01-16T07:02:13.404Z,1004.15
2019-01-16T07:03:13.734Z,1004.17
2019-01-16T07:04:13.509Z,1004.21
2019-01-16T07:05:13.561Z,1004.17
2019-01-16T07:06:13.614Z,1004.16
2019-01-16T07:07:13.666Z,1004.22
2019-01-16T07:08:14.480Z,1004.27
2019-01-16T07:09:13.769Z,1004.24
2019-01-16T07:10:13.827Z,1004.22
2019-01-16T07:11:13.877Z,1004.23
2019-01-16T07:12:14.562Z,1004.23
2019-01-16T07:13:14.566Z,1004.25
2019-01-16T07:14:14.522Z,1004.25
2019-01-16T07:15:14.587Z,1004.33
2019-01-16T07:16:14.805Z,1004.35
2019-01-16T07:17:14.868Z,1004.33
2019-01-16T07:18:14.921Z,1004.31
2019-01-16T07:19:14.291Z,1004.31
2019-01-16T07:20:14.343Z,1004.35
2019-01-16T07:21:14.394Z,1004.33
2019-01-16T07:22:14.449Z,1004.36
2019-01-16T07:23:14.502Z,1004.42
2019-01-16T07:24:14.551Z,1004.37
2019-01-16T07:25:14.602Z,1004.37
2019-01-16T07:26:14.655Z,1004.39
2019-01-16T07:27:14.707Z,1004.38
2019-01-16T07:28:14.759Z,1004.33
2019-01-16T07:29:14.812Z,1004.38
2019-01-16T07:30:14.863Z,1004.35
2019-01-16T07:31:14.916Z,1004.27
2019-01-16T07:32:14.971Z,1004.17
2019-01-16T07:33:15.021Z,1004.18
2019-01-16T07:34:15.072Z,1004.12
2019-01-16T07:35:15.127Z,1004.11
2019-01-16T07:36:15.199Z,1004.12
2019-01-16T07:37:15.252Z,1004.17
2019-01-16T07:38:15.303Z,1004.13
2019-01-16T07:39:15.334Z,1004.17
2019-01-16T07:40:15.385Z,1004.14
2019-01-16T07:41:15.439Z,1004.19
2019-01-16T07:42:15.493Z,1004.12
2019-01-16T07:43:15.544Z,1004.09
2019-01-16T07:44:15.643Z,1004.04
2019-01-16T07:45:15.646Z,1004.04
2019-01-16T07:46:15.710Z,1004.03
2019-01-16T07:47:15.751Z,1004.06
2019-01-16T07:48:15.801Z,1004.11
2019-01-16T07:49:15.857Z,1004.14
2019-01-16T07:50:17.421Z,1004.14
2019-01-16T07:51:15.960Z,1004.15
2019-01-16T07:52:16.010Z,1004.16
2019-01-16T07:53:16.062Z,1004.07
2019-01-16T07:54:16.132Z,1004.09
2019-01-16T07:55:16.207Z,1004.08
2019-01-16T07:56:16.218Z,1004.07
2019-01-16T07:57:16.280Z,1004.01
2019-01-16T07:58:16.331Z,1004.06
2019-01-16T07:59:21.676Z,1003.99
2019-01-16T08:00:16.461Z,1003.99
2019-01-16T08:01:16.480Z,1003.98
2019-01-16T08:02:16.849Z,1003.96
2019-01-16T08:03:16.604Z,1003.96
2019-01-16T08:04:16.635Z,1003.96
2019-01-16T08:05:16.687Z,1003.93
2019-01-16T08:06:16.741Z,1003.96
2019-01-16T08:07:17.484Z,1003.96
2019-01-16T08:08:16.913Z,1004.06
2019-01-16T08:09:16.897Z,1004.01
2019-01-16T08:10:16.953Z,1004.01
2019-01-16T08:11:17.001Z,1004.03
2019-01-16T08:12:17.052Z,1004.03
2019-01-16T08:13:17.106Z,1004.02
2019-01-16T08:14:17.161Z,1004.06
2019-01-16T08:15:17.937Z,1004.04
2019-01-16T08:16:17.263Z,1004.02
2019-01-16T08:17:17.317Z,1004.09
2019-01-16T08:18:17.367Z,1004.07
2019-01-16T08:19:17.421Z,1004.02
2019-01-16T08:20:24.714Z,1003.96
2019-01-16T08:21:17.523Z,1003.99
2019-01-16T08:22:17.576Z,1003.93
2019-01-16T08:23:17.628Z,1003.96
2019-01-16T08:24:17.681Z,1003.94
2019-01-16T08:25:17.736Z,1003.91
2019-01-16T08:26:17.788Z,1003.97
2019-01-16T08:27:17.838Z,1003.98
2019-01-16T08:28:17.890Z,1004.01
2019-01-16T08:29:17.942Z,1003.99
2019-01-16T08:30:17.995Z,1004.00
2019-01-16T08:31:18.047Z,1003.98
2019-01-16T08:32:18.101Z,1003.99
2019-01-16T08:33:18.155Z,1004.02
2019-01-16T08:34:18.203Z,1003.99
2019-01-16T08:35:18.256Z,1004.01
2019-01-16T08:36:18.309Z,1003.95
2019-01-16T08:37:18.360Z,1003.94
2019-01-16T08:38:18.413Z,1003.94
2019-01-16T08:39:18.466Z,1003.96
2019-01-16T08:40:19.003Z,1003.95
2019-01-16T08:41:18.569Z,1003.91
2019-01-16T08:42:18.622Z,1003.91
2019-01-16T08:43:18.676Z,1003.94
2019-01-16T08:44:18.724Z,1003.96
2019-01-16T08:45:19.158Z,1003.94
2019-01-16T08:46:19.235Z,1003.92
2019-01-16T08:47:18.899Z,1003.93
2019-01-16T08:48:18.934Z,1003.87
2019-01-16T08:49:18.986Z,1003.91
2019-01-16T08:50:19.040Z,1003.86
2019-01-16T08:51:19.092Z,1003.90
2019-01-16T08:52:19.146Z,1003.79
2019-01-16T08:53:19.200Z,1003.79
2019-01-16T08:54:19.252Z,1003.85
2019-01-16T08:55:19.303Z,1003.79
2019-01-16T08:56:19.352Z,1003.80
2019-01-16T08:57:19.406Z,1003.78
2019-01-16T08:58:19.458Z,1003.76
2019-01-16T08:59:19.509Z,1003.73
2019-01-16T09:00:19.560Z,1003.68
2019-01-16T09:01:19.613Z,1003.62
2019-01-16T09:02:19.670Z,1003.68
2019-01-16T09:03:19.718Z,1003.63
2019-01-16T09:04:19.769Z,1003.71
2019-01-16T09:05:20.283Z,1003.78
2019-01-16T09:06:19.926Z,1003.78
2019-01-16T09:07:19.928Z,1003.70
2019-01-16T09:08:19.984Z,1003.74
2019-01-16T09:09:20.030Z,1003.70
2019-01-16T09:10:20.083Z,1003.70
2019-01-16T09:11:20.135Z,1003.71
2019-01-16T09:12:20.187Z,1003.68
2019-01-16T09:13:20.239Z,1003.68
2019-01-16T09:14:20.293Z,1003.69
2019-01-16T09:15:20.345Z,1003.73
2019-01-16T09:16:20.397Z,1003.72
2019-01-16T09:17:20.450Z,1003.80
2019-01-16T09:18:20.502Z,1003.80
2019-01-16T09:19:20.555Z,1003.74
2019-01-16T09:20:20.605Z,1003.74
2019-01-16T09:21:20.658Z,1003.81
2019-01-16T09:22:20.710Z,1003.82
2019-01-16T09:23:20.763Z,1003.86
2019-01-16T09:24:20.868Z,1003.81
2019-01-16T09:25:20.867Z,1003.85
2019-01-16T09:26:20.937Z,1003.83
2019-01-16T09:27:20.974Z,1003.82
2019-01-16T09:28:21.022Z,1003.80
2019-01-16T09:29:21.075Z,1003.77
2019-01-16T09:30:21.128Z,1003.77
2019-01-16T09:31:21.181Z,1003.76
2019-01-16T09:32:21.233Z,1003.77
2019-01-16T09:33:21.285Z,1003.67
2019-01-16T09:34:21.337Z,1003.76
2019-01-16T09:35:21.390Z,1003.71
2019-01-16T09:36:21.442Z,1003.78
2019-01-16T09:37:21.492Z,1003.72
2019-01-16T09:38:21.548Z,1003.82
2019-01-16T09:39:21.599Z,1003.81
2019-01-16T09:40:21.650Z,1003.80
2019-01-16T09:41:21.703Z,1003.80
2019-01-16T09:42:21.755Z,1003.81
2019-01-16T09:43:21.814Z,1003.82
2019-01-16T09:44:21.860Z,1003.84
2019-01-16T09:45:22.507Z,1003.73
2019-01-16T09:46:21.963Z,1003.71
2019-01-16T09:47:22.017Z,1003.66
2019-01-16T09:48:22.068Z,1003.72
2019-01-16T09:49:22.121Z,1003.73
2019-01-16T09:50:22.173Z,1003.64
2019-01-16T09:51:22.225Z,1003.69
2019-01-16T09:52:22.278Z,1003.74
2019-01-16T09:53:22.328Z,1003.70
2019-01-16T09:54:22.382Z,1003.69
2019-01-16T09:55:22.435Z,1003.67
2019-01-16T09:56:22.486Z,1003.63
2019-01-16T09:57:22.846Z,1003.62
2019-01-16T09:58:22.591Z,1003.62
2019-01-16T09:59:22.644Z,1003.58
2019-01-16T10:00:22.700Z,1003.63
2019-01-16T10:01:22.748Z,1003.65
2019-01-16T10:02:22.801Z,1003.71
2019-01-16T10:03:22.853Z,1003.73
2019-01-16T10:04:22.904Z,1003.75
2019-01-16T10:05:22.956Z,1003.72
2019-01-16T10:06:23.011Z,1003.67
2019-01-16T10:07:23.062Z,1003.62
2019-01-16T10:08:23.114Z,1003.66
2019-01-16T10:09:23.169Z,1003.64
2019-01-16T10:10:23.220Z,1003.55
2019-01-16T10:11:23.271Z,1003.59
2019-01-16T10:12:23.323Z,1003.57
2019-01-16T10:13:23.377Z,1003.50
2019-01-16T10:14:23.428Z,1003.52
2019-01-16T10:15:23.480Z,1003.42
2019-01-16T10:16:23.537Z,1003.42
2019-01-16T10:17:23.591Z,1003.41
2019-01-16T10:18:23.637Z,1003.40
2019-01-16T10:19:23.688Z,1003.37
2019-01-16T10:20:23.741Z,1003.35
2019-01-16T10:21:23.796Z,1003.35
2019-01-16T10:22:23.846Z,1003.34
2019-01-16T10:23:23.898Z,1003.33
2019-01-16T10:24:23.950Z,1003.24
2019-01-16T10:25:24.001Z,1003.25
2019-01-16T10:26:24.056Z,1003.19
2019-01-16T10:27:24.108Z,1003.18
2019-01-16T10:28:24.160Z,1003.10
2019-01-16T10:29:24.212Z,1003.08
2019-01-16T10:30:24.264Z,1003.10
2019-01-16T10:31:24.320Z,1003.11
2019-01-16T10:32:24.370Z,1003.09
2019-01-16T10:33:24.422Z,1003.06
2019-01-16T10:34:24.475Z,1003.00
2019-01-16T10:35:24.526Z,1002.99
2019-01-16T10:36:24.579Z,1003.01
2019-01-16T10:37:24.632Z,1003.01
2019-01-16T10:38:24.683Z,1002.96
2019-01-16T10:39:24.738Z,1002.96
2019-01-16T10:40:24.789Z,1002.96
2019-01-16T10:41:24.841Z,1002.94
2019-01-16T10:42:24.895Z,1002.91
2019-01-16T10:43:24.951Z,1002.88
2019-01-16T10:44:24.999Z,1002.80
2019-01-16T10:45:25.053Z,1002.76
2019-01-16T10:46:25.105Z,1002.75
2019-01-16T10:47:25.157Z,1002.71
2019-01-16T10:48:25.212Z,1002.73
2019-01-16T10:49:25.263Z,1002.71
2019-01-16T10:50:25.315Z,1002.64
2019-01-16T10:51:25.372Z,1002.68
2019-01-16T10:52:25.421Z,1002.71
2019-01-16T10:53:25.498Z,1002.69
2019-01-16T10:54:25.526Z,1002.72
2019-01-16T10:55:25.579Z,1002.64
2019-01-16T10:56:25.630Z,1002.61
2019-01-16T10:57:26.930Z,1002.52
2019-01-16T10:58:25.738Z,1002.49
2019-01-16T10:59:25.867Z,1002.48
2019-01-16T11:00:25.844Z,1002.49
2019-01-16T11:01:25.894Z,1002.48
2019-01-16T11:02:25.947Z,1002.40
2019-01-16T11:03:26.001Z,1002.39
2019-01-16T11:04:26.053Z,1002.46
2019-01-16T11:05:26.107Z,1002.41
2019-01-16T11:06:26.160Z,1002.38
2019-01-16T11:07:26.215Z,1002.41
2019-01-16T11:08:26.267Z,1002.40
2019-01-16T11:09:26.316Z,1002.38
2019-01-16T11:10:26.371Z,1002.38
2019-01-16T11:11:26.423Z,1002.37
2019-01-16T11:12:26.474Z,1002.29
2019-01-16T11:13:26.592Z,1002.22
2019-01-16T11:14:26.582Z,1002.22
2019-01-16T11:15:27.418Z,1002.16
2019-01-16T11:16:26.687Z,1002.16
2019-01-16T11:17:27.353Z,1002.14
2019-01-16T11:18:26.793Z,1002.15
2019-01-16T11:19:26.850Z,1002.21
2019-01-16T11:20:26.898Z,1002.18
2019-01-16T11:21:26.950Z,1002.15
2019-01-16T11:22:27.450Z,1002.09
2019-01-16T11:23:27.056Z,1002.09
2019-01-16T11:24:27.113Z,1002.09
2019-01-16T11:25:27.162Z,1002.03
2019-01-16T11:26:27.642Z,1001.96
2019-01-16T11:27:27.268Z,1001.95
2019-01-16T11:28:28.018Z,1001.94
2019-01-16T11:29:27.992Z,1001.90
2019-01-16T11:30:28.259Z,1001.92
2019-01-16T11:31:28.161Z,1001.86
2019-01-16T11:32:27.532Z,1001.87
2019-01-16T11:33:27.587Z,1001.89
2019-01-16T11:34:27.639Z,1001.81
2019-01-16T11:35:28.303Z,1001.74
2019-01-16T11:36:28.193Z,1001.79
2019-01-16T11:37:27.798Z,1001.75
2019-01-16T11:38:27.853Z,1001.72
2019-01-16T11:39:27.904Z,1001.73
2019-01-16T11:40:27.955Z,1001.70
2019-01-16T11:41:28.008Z,1001.64
2019-01-16T11:42:28.068Z,1001.62
2019-01-16T11:43:28.115Z,1001.58
2019-01-16T11:44:28.167Z,1001.63
2019-01-16T11:45:28.219Z,1001.67
2019-01-16T11:46:28.274Z,1001.64
2019-01-16T11:47:28.326Z,1001.60
2019-01-16T11:48:28.381Z,1001.57
2019-01-16T11:49:28.437Z,1001.53
2019-01-16T11:50:28.486Z,1001.52
2019-01-16T11:51:33.651Z,1001.48
2019-01-16T11:52:28.592Z,1001.40
2019-01-16T11:53:28.645Z,1001.42
2019-01-16T11:54:28.704Z,1001.43
2019-01-16T11:55:28.751Z,1001.45
2019-01-16T11:56:28.811Z,1001.41
2019-01-16T11:57:28.859Z,1001.43
2019-01-16T11:58:28.910Z,1001.40
2019-01-16T11:59:29.181Z,1001.39
2019-01-16T12:00:29.016Z,1001.39
2019-01-16T12:01:29.847Z,1001.45
2019-01-16T12:02:29.123Z,1001.38
2019-01-16T12:03:29.175Z,1001.35
2019-01-16T12:04:29.228Z,1001.31
2019-01-16T12:05:29.282Z,1001.27
2019-01-16T12:06:29.336Z,1001.28